sensor_id;sensor_type;location;lat;lon;timestamp;temperature;humidity
40023;DHT22;25713;-35.352;149.036;2024-03-08T00:01:45;22.60;80.70
40023;DHT22;25713;-35.352;149.036;2024-03-08T00:04:17;22.60;80.40
40023;DHT22;25713;-35.352;149.036;2024-03-08T00:06:46;22.60;80.50
40023;DHT22;25713;-35.352;149.036;2024-03-08T00:09:16;22.60;80.40
40023;DHT22;25713;-35.352;149.036;2024-03-08T00:11:45;22.60;80.80
40023;DHT22;25713;-35.352;149.036;2024-03-08T00:14:14;22.60;80.90
40023;DHT22;25713;-35.352;149.036;2024-03-08T00:16:44;22.60;81.20
40023;DHT22;25713;-35.352;149.036;2024-03-08T00:19:15;22.70;81.20
40023;DHT22;25713;-35.352;149.036;2024-03-08T00:21:45;22.70;80.60
40023;DHT22;25713;-35.352;149.036;2024-03-08T00:24:14;22.80;80.50
40023;DHT22;25713;-35.352;149.036;2024-03-08T00:26:43;22.80;80.80
40023;DHT22;25713;-35.352;149.036;2024-03-08T00:29:13;22.90;79.90
40023;DHT22;25713;-35.352;149.036;2024-03-08T00:31:43;22.90;80.50
40023;DHT22;25713;-35.352;149.036;2024-03-08T00:34:12;22.90;80.50
40023;DHT22;25713;-35.352;149.036;2024-03-08T00:36:43;22.90;80.40
40023;DHT22;25713;-35.352;149.036;2024-03-08T00:39:13;23.00;80.10
40023;DHT22;25713;-35.352;149.036;2024-03-08T00:41:42;22.90;79.70
40023;DHT22;25713;-35.352;149.036;2024-03-08T00:44:12;22.90;79.90
40023;DHT22;25713;-35.352;149.036;2024-03-08T00:46:41;22.90;80.50
40023;DHT22;25713;-35.352;149.036;2024-03-08T00:49:11;23.00;80.10
40023;DHT22;25713;-35.352;149.036;2024-03-08T00:51:42;23.00;80.10
40023;DHT22;25713;-35.352;149.036;2024-03-08T00:54:11;23.10;79.60
40023;DHT22;25713;-35.352;149.036;2024-03-08T00:56:41;23.20;79.50
40023;DHT22;25713;-35.352;149.036;2024-03-08T00:59:10;23.20;78.00
40023;DHT22;25713;-35.352;149.036;2024-03-08T01:01:40;23.20;78.90
40023;DHT22;25713;-35.352;149.036;2024-03-08T01:04:10;23.20;77.90
40023;DHT22;25713;-35.352;149.036;2024-03-08T01:06:39;23.20;79.00
40023;DHT22;25713;-35.352;149.036;2024-03-08T01:09:10;23.30;78.10
40023;DHT22;25713;-35.352;149.036;2024-03-08T01:11:40;23.20;79.00
40023;DHT22;25713;-35.352;149.036;2024-03-08T01:14:09;23.30;78.90
40023;DHT22;25713;-35.352;149.036;2024-03-08T01:16:39;23.20;78.70
40023;DHT22;25713;-35.352;149.036;2024-03-08T01:19:08;23.30;79.70
40023;DHT22;25713;-35.352;149.036;2024-03-08T01:21:38;23.30;78.80
40023;DHT22;25713;-35.352;149.036;2024-03-08T01:24:09;23.40;79.70
40023;DHT22;25713;-35.352;149.036;2024-03-08T01:26:38;23.40;79.50
40023;DHT22;25713;-35.352;149.036;2024-03-08T01:29:08;23.50;79.40
40023;DHT22;25713;-35.352;149.036;2024-03-08T01:31:37;23.50;78.90
40023;DHT22;25713;-35.352;149.036;2024-03-08T01:34:07;23.50;78.40
40023;DHT22;25713;-35.352;149.036;2024-03-08T01:36:36;23.60;78.30
40023;DHT22;25713;-35.352;149.036;2024-03-08T01:39:06;23.70;77.90
40023;DHT22;25713;-35.352;149.036;2024-03-08T01:41:37;23.70;77.60
40023;DHT22;25713;-35.352;149.036;2024-03-08T01:44:07;23.70;77.60
40023;DHT22;25713;-35.352;149.036;2024-03-08T01:46:36;23.70;77.30
40023;DHT22;25713;-35.352;149.036;2024-03-08T01:49:06;23.70;77.60
40023;DHT22;25713;-35.352;149.036;2024-03-08T01:51:35;23.70;77.40
40023;DHT22;25713;-35.352;149.036;2024-03-08T01:54:05;23.80;77.90
40023;DHT22;25713;-35.352;149.036;2024-03-08T01:56:38;23.70;77.40
40023;DHT22;25713;-35.352;149.036;2024-03-08T01:59:08;23.80;77.40
40023;DHT22;25713;-35.352;149.036;2024-03-08T02:01:38;23.80;78.00
40023;DHT22;25713;-35.352;149.036;2024-03-08T02:04:08;24.00;77.90
40023;DHT22;25713;-35.352;149.036;2024-03-08T02:06:37;24.00;77.90
40023;DHT22;25713;-35.352;149.036;2024-03-08T02:09:06;24.00;78.20
40023;DHT22;25713;-35.352;149.036;2024-03-08T02:11:38;24.00;78.00
40023;DHT22;25713;-35.352;149.036;2024-03-08T02:14:09;24.00;77.90
40023;DHT22;25713;-35.352;149.036;2024-03-08T02:16:38;24.00;77.00
40023;DHT22;25713;-35.352;149.036;2024-03-08T02:19:08;24.00;77.30
40023;DHT22;25713;-35.352;149.036;2024-03-08T02:21:39;24.00;76.70
40023;DHT22;25713;-35.352;149.036;2024-03-08T02:24:09;24.10;76.40
40023;DHT22;25713;-35.352;149.036;2024-03-08T02:26:38;24.10;77.50
40023;DHT22;25713;-35.352;149.036;2024-03-08T02:29:08;24.10;77.90
40023;DHT22;25713;-35.352;149.036;2024-03-08T02:31:37;24.10;77.30
40023;DHT22;25713;-35.352;149.036;2024-03-08T02:34:07;24.20;76.50
40023;DHT22;25713;-35.352;149.036;2024-03-08T02:36:38;24.30;76.00
40023;DHT22;25713;-35.352;149.036;2024-03-08T02:39:08;24.30;75.30
40023;DHT22;25713;-35.352;149.036;2024-03-08T02:41:37;24.40;73.70
40023;DHT22;25713;-35.352;149.036;2024-03-08T02:44:07;24.40;76.20
40023;DHT22;25713;-35.352;149.036;2024-03-08T02:46:36;24.40;75.70
40023;DHT22;25713;-35.352;149.036;2024-03-08T02:49:06;24.40;76.80
40023;DHT22;25713;-35.352;149.036;2024-03-08T02:51:35;24.40;76.60
40023;DHT22;25713;-35.352;149.036;2024-03-08T02:54:06;24.50;76.20
40023;DHT22;25713;-35.352;149.036;2024-03-08T02:56:36;24.40;75.00
40023;DHT22;25713;-35.352;149.036;2024-03-08T02:59:05;24.60;74.60
40023;DHT22;25713;-35.352;149.036;2024-03-08T03:01:35;24.70;75.20
40023;DHT22;25713;-35.352;149.036;2024-03-08T03:04:04;24.70;75.90
40023;DHT22;25713;-35.352;149.036;2024-03-08T03:06:34;24.70;75.40
40023;DHT22;25713;-35.352;149.036;2024-03-08T03:09:05;24.70;75.60
40023;DHT22;25713;-35.352;149.036;2024-03-08T03:11:35;24.80;76.00
40023;DHT22;25713;-35.352;149.036;2024-03-08T03:14:04;24.80;75.80
40023;DHT22;25713;-35.352;149.036;2024-03-08T03:16:34;24.80;75.50
40023;DHT22;25713;-35.352;149.036;2024-03-08T03:19:03;24.90;74.70
40023;DHT22;25713;-35.352;149.036;2024-03-08T03:21:33;24.80;75.90
40023;DHT22;25713;-35.352;149.036;2024-03-08T03:24:02;24.90;75.50
40023;DHT22;25713;-35.352;149.036;2024-03-08T03:26:33;24.90;75.00
40023;DHT22;25713;-35.352;149.036;2024-03-08T03:29:03;25.00;75.50
40023;DHT22;25713;-35.352;149.036;2024-03-08T03:31:32;25.00;75.70
40023;DHT22;25713;-35.352;149.036;2024-03-08T03:34:02;25.00;75.60
40023;DHT22;25713;-35.352;149.036;2024-03-08T03:36:32;25.00;74.70
40023;DHT22;25713;-35.352;149.036;2024-03-08T03:39:01;25.10;74.00
40023;DHT22;25713;-35.352;149.036;2024-03-08T03:41:32;25.10;75.20
40023;DHT22;25713;-35.352;149.036;2024-03-08T03:44:02;25.10;75.30
40023;DHT22;25713;-35.352;149.036;2024-03-08T03:46:31;25.10;76.10
40023;DHT22;25713;-35.352;149.036;2024-03-08T03:49:01;25.10;75.20
40023;DHT22;25713;-35.352;149.036;2024-03-08T03:51:30;25.10;75.30
40023;DHT22;25713;-35.352;149.036;2024-03-08T03:54:00;25.20;75.40
40023;DHT22;25713;-35.352;149.036;2024-03-08T03:56:29;25.20;74.40
40023;DHT22;25713;-35.352;149.036;2024-03-08T03:59:01;25.20;74.70
40023;DHT22;25713;-35.352;149.036;2024-03-08T04:01:30;25.20;74.70
40023;DHT22;25713;-35.352;149.036;2024-03-08T04:03:59;25.30;74.70
40023;DHT22;25713;-35.352;149.036;2024-03-08T04:06:29;25.30;73.50
40023;DHT22;25713;-35.352;149.036;2024-03-08T04:08:58;25.40;73.40
40023;DHT22;25713;-35.352;149.036;2024-03-08T04:11:28;25.60;72.30
40023;DHT22;25713;-35.352;149.036;2024-03-08T04:13:59;25.60;73.30
40023;DHT22;25713;-35.352;149.036;2024-03-08T04:16:29;25.60;73.50
40023;DHT22;25713;-35.352;149.036;2024-03-08T04:18:58;25.60;73.70
40023;DHT22;25713;-35.352;149.036;2024-03-08T04:21:28;25.50;73.20
40023;DHT22;25713;-35.352;149.036;2024-03-08T04:23:59;25.50;74.40
40023;DHT22;25713;-35.352;149.036;2024-03-08T04:26:28;25.50;74.40
40023;DHT22;25713;-35.352;149.036;2024-03-08T04:28:59;25.50;74.00
40023;DHT22;25713;-35.352;149.036;2024-03-08T04:31:29;25.40;74.90
40023;DHT22;25713;-35.352;149.036;2024-03-08T04:33:59;25.40;73.10
40023;DHT22;25713;-35.352;149.036;2024-03-08T04:36:28;25.50;73.10
40023;DHT22;25713;-35.352;149.036;2024-03-08T04:38:58;25.50;73.90
40023;DHT22;25713;-35.352;149.036;2024-03-08T04:41:27;25.50;74.00
40023;DHT22;25713;-35.352;149.036;2024-03-08T04:43:59;25.50;74.80
40023;DHT22;25713;-35.352;149.036;2024-03-08T04:46:29;25.50;74.60
40023;DHT22;25713;-35.352;149.036;2024-03-08T04:48:58;25.50;74.30
40023;DHT22;25713;-35.352;149.036;2024-03-08T04:51:28;25.50;74.10
40023;DHT22;25713;-35.352;149.036;2024-03-08T04:53:57;25.50;73.90
40023;DHT22;25713;-35.352;149.036;2024-03-08T04:56:26;25.60;73.50
40023;DHT22;25713;-35.352;149.036;2024-03-08T04:58:56;25.60;74.30
40023;DHT22;25713;-35.352;149.036;2024-03-08T05:01:27;25.60;72.90
40023;DHT22;25713;-35.352;149.036;2024-03-08T05:03:57;25.60;73.40
40023;DHT22;25713;-35.352;149.036;2024-03-08T05:06:26;25.70;73.70
40023;DHT22;25713;-35.352;149.036;2024-03-08T05:08:56;25.70;72.90
40023;DHT22;25713;-35.352;149.036;2024-03-08T05:11:25;25.70;73.00
40023;DHT22;25713;-35.352;149.036;2024-03-08T05:13:55;25.70;72.30
40023;DHT22;25713;-35.352;149.036;2024-03-08T05:16:26;25.80;71.70
40023;DHT22;25713;-35.352;149.036;2024-03-08T05:18:56;25.80;72.50
40023;DHT22;25713;-35.352;149.036;2024-03-08T05:21:25;25.80;72.60
40023;DHT22;25713;-35.352;149.036;2024-03-08T05:23:54;25.80;72.00
40023;DHT22;25713;-35.352;149.036;2024-03-08T05:26:24;25.80;72.80
40023;DHT22;25713;-35.352;149.036;2024-03-08T05:28:53;25.80;73.00
40023;DHT22;25713;-35.352;149.036;2024-03-08T05:31:23;25.80;72.20
40023;DHT22;25713;-35.352;149.036;2024-03-08T05:33:54;25.80;72.70
40023;DHT22;25713;-35.352;149.036;2024-03-08T05:36:24;25.90;72.00
40023;DHT22;25713;-35.352;149.036;2024-03-08T05:38:53;25.80;73.00
40023;DHT22;25713;-35.352;149.036;2024-03-08T05:41:23;25.80;73.00
40023;DHT22;25713;-35.352;149.036;2024-03-08T05:43:52;25.80;72.50
40023;DHT22;25713;-35.352;149.036;2024-03-08T05:46:22;25.80;72.70
40023;DHT22;25713;-35.352;149.036;2024-03-08T05:48:53;25.80;72.80
40023;DHT22;25713;-35.352;149.036;2024-03-08T05:51:24;25.80;72.10
40023;DHT22;25713;-35.352;149.036;2024-03-08T05:53:54;25.80;72.20
40023;DHT22;25713;-35.352;149.036;2024-03-08T05:56:23;25.80;71.70
40023;DHT22;25713;-35.352;149.036;2024-03-08T05:58:53;25.80;72.20
40023;DHT22;25713;-35.352;149.036;2024-03-08T06:01:22;25.90;72.40
40023;DHT22;25713;-35.352;149.036;2024-03-08T06:03:53;25.90;72.10
40023;DHT22;25713;-35.352;149.036;2024-03-08T06:06:23;25.80;72.50
40023;DHT22;25713;-35.352;149.036;2024-03-08T06:08:53;25.80;72.60
40023;DHT22;25713;-35.352;149.036;2024-03-08T06:11:23;25.80;72.60
40023;DHT22;25713;-35.352;149.036;2024-03-08T06:13:52;25.90;72.50
40023;DHT22;25713;-35.352;149.036;2024-03-08T06:16:22;25.90;73.00
40023;DHT22;25713;-35.352;149.036;2024-03-08T06:18:53;26.00;72.50
40023;DHT22;25713;-35.352;149.036;2024-03-08T06:21:23;25.90;72.20
40023;DHT22;25713;-35.352;149.036;2024-03-08T06:23:53;25.90;71.90
40023;DHT22;25713;-35.352;149.036;2024-03-08T06:26:22;25.90;72.10
40023;DHT22;25713;-35.352;149.036;2024-03-08T06:28:52;25.80;71.80
40023;DHT22;25713;-35.352;149.036;2024-03-08T06:31:21;25.90;72.70
40023;DHT22;25713;-35.352;149.036;2024-03-08T06:33:51;25.80;72.70
40023;DHT22;25713;-35.352;149.036;2024-03-08T06:36:22;25.80;73.00
40023;DHT22;25713;-35.352;149.036;2024-03-08T06:38:52;25.80;73.10
40023;DHT22;25713;-35.352;149.036;2024-03-08T06:41:21;25.80;73.40
40023;DHT22;25713;-35.352;149.036;2024-03-08T06:43:51;25.80;74.30
40023;DHT22;25713;-35.352;149.036;2024-03-08T06:46:20;25.80;73.00
40023;DHT22;25713;-35.352;149.036;2024-03-08T06:48:50;25.80;73.70
40023;DHT22;25713;-35.352;149.036;2024-03-08T06:51:21;25.80;73.60
40023;DHT22;25713;-35.352;149.036;2024-03-08T06:53:50;25.80;73.60
40023;DHT22;25713;-35.352;149.036;2024-03-08T06:56:20;25.80;73.40
40023;DHT22;25713;-35.352;149.036;2024-03-08T06:58:49;25.80;74.00
40023;DHT22;25713;-35.352;149.036;2024-03-08T07:01:19;25.80;73.90
40023;DHT22;25713;-35.352;149.036;2024-03-08T07:03:48;25.80;73.10
40023;DHT22;25713;-35.352;149.036;2024-03-08T07:06:18;25.80;73.30
40023;DHT22;25713;-35.352;149.036;2024-03-08T07:08:49;25.70;73.60
40023;DHT22;25713;-35.352;149.036;2024-03-08T07:11:18;25.70;73.40
40023;DHT22;25713;-35.352;149.036;2024-03-08T07:13:48;25.70;73.30
40023;DHT22;25713;-35.352;149.036;2024-03-08T07:16:17;25.70;74.10
40023;DHT22;25713;-35.352;149.036;2024-03-08T07:18:46;25.70;74.00
40023;DHT22;25713;-35.352;149.036;2024-03-08T07:21:16;25.60;74.20
40023;DHT22;25713;-35.352;149.036;2024-03-08T07:23:47;25.60;73.80
40023;DHT22;25713;-35.352;149.036;2024-03-08T07:26:17;25.70;74.20
40023;DHT22;25713;-35.352;149.036;2024-03-08T07:28:46;25.60;74.60
40023;DHT22;25713;-35.352;149.036;2024-03-08T07:31:16;25.70;74.20
40023;DHT22;25713;-35.352;149.036;2024-03-08T07:33:45;25.70;74.20
40023;DHT22;25713;-35.352;149.036;2024-03-08T07:36:15;25.70;74.90
40023;DHT22;25713;-35.352;149.036;2024-03-08T07:38:44;25.60;75.00
40023;DHT22;25713;-35.352;149.036;2024-03-08T07:41:16;25.60;74.80
40023;DHT22;25713;-35.352;149.036;2024-03-08T07:43:45;25.70;74.50
40023;DHT22;25713;-35.352;149.036;2024-03-08T07:46:15;25.70;74.20
40023;DHT22;25713;-35.352;149.036;2024-03-08T07:48:44;25.60;74.40
40023;DHT22;25713;-35.352;149.036;2024-03-08T07:51:16;25.60;74.80
40023;DHT22;25713;-35.352;149.036;2024-03-08T07:53:45;25.50;74.70
40023;DHT22;25713;-35.352;149.036;2024-03-08T07:56:17;25.60;74.60
40023;DHT22;25713;-35.352;149.036;2024-03-08T07:58:46;25.60;74.30
40023;DHT22;25713;-35.352;149.036;2024-03-08T08:01:18;25.50;75.20
40023;DHT22;25713;-35.352;149.036;2024-03-08T08:03:47;25.50;75.30
40023;DHT22;25713;-35.352;149.036;2024-03-08T08:06:17;25.50;75.30
40023;DHT22;25713;-35.352;149.036;2024-03-08T08:08:46;25.50;75.00
40023;DHT22;25713;-35.352;149.036;2024-03-08T08:11:17;25.50;74.90
40023;DHT22;25713;-35.352;149.036;2024-03-08T08:13:47;25.50;75.30
40023;DHT22;25713;-35.352;149.036;2024-03-08T08:16:16;25.50;75.40
40023;DHT22;25713;-35.352;149.036;2024-03-08T08:18:46;25.50;75.60
40023;DHT22;25713;-35.352;149.036;2024-03-08T08:21:15;25.40;75.50
40023;DHT22;25713;-35.352;149.036;2024-03-08T08:23:44;25.50;75.90
40023;DHT22;25713;-35.352;149.036;2024-03-08T08:26:16;25.40;76.20
40023;DHT22;25713;-35.352;149.036;2024-03-08T08:28:46;25.40;76.50
40023;DHT22;25713;-35.352;149.036;2024-03-08T08:31:15;25.30;76.50
40023;DHT22;25713;-35.352;149.036;2024-03-08T08:33:45;25.30;76.50
40023;DHT22;25713;-35.352;149.036;2024-03-08T08:36:14;25.30;76.50
40023;DHT22;25713;-35.352;149.036;2024-03-08T08:38:44;25.30;76.70
40023;DHT22;25713;-35.352;149.036;2024-03-08T08:41:13;25.30;76.80
40023;DHT22;25713;-35.352;149.036;2024-03-08T08:43:44;25.30;76.80
40023;DHT22;25713;-35.352;149.036;2024-03-08T08:46:16;25.30;77.00
40023;DHT22;25713;-35.352;149.036;2024-03-08T08:48:45;25.30;76.80
40023;DHT22;25713;-35.352;149.036;2024-03-08T08:51:15;25.20;77.00
40023;DHT22;25713;-35.352;149.036;2024-03-08T08:53:44;25.20;77.20
40023;DHT22;25713;-35.352;149.036;2024-03-08T08:56:14;25.20;77.30
40023;DHT22;25713;-35.352;149.036;2024-03-08T08:58:45;25.20;77.40
40023;DHT22;25713;-35.352;149.036;2024-03-08T09:01:15;25.20;77.60
40023;DHT22;25713;-35.352;149.036;2024-03-08T09:03:44;25.20;78.00
40023;DHT22;25713;-35.352;149.036;2024-03-08T09:06:14;25.10;77.90
40023;DHT22;25713;-35.352;149.036;2024-03-08T09:08:43;25.10;77.80
40023;DHT22;25713;-35.352;149.036;2024-03-08T09:11:13;25.20;78.10
40023;DHT22;25713;-35.352;149.036;2024-03-08T09:13:46;25.20;78.30
40023;DHT22;25713;-35.352;149.036;2024-03-08T09:16:15;25.10;78.50
40023;DHT22;25713;-35.352;149.036;2024-03-08T09:18:45;25.10;78.70
40023;DHT22;25713;-35.352;149.036;2024-03-08T09:21:15;25.10;78.80
40023;DHT22;25713;-35.352;149.036;2024-03-08T09:23:44;25.10;78.80
40023;DHT22;25713;-35.352;149.036;2024-03-08T09:26:14;25.00;78.80
40023;DHT22;25713;-35.352;149.036;2024-03-08T09:28:45;25.00;79.00
40023;DHT22;25713;-35.352;149.036;2024-03-08T09:31:15;25.00;79.00
40023;DHT22;25713;-35.352;149.036;2024-03-08T09:33:44;25.00;79.20
40023;DHT22;25713;-35.352;149.036;2024-03-08T09:36:15;25.00;79.20
40023;DHT22;25713;-35.352;149.036;2024-03-08T09:38:44;25.00;79.20
40023;DHT22;25713;-35.352;149.036;2024-03-08T09:41:13;25.00;79.30
40023;DHT22;25713;-35.352;149.036;2024-03-08T09:43:45;25.00;79.50
40023;DHT22;25713;-35.352;149.036;2024-03-08T09:46:19;25.00;79.60
40023;DHT22;25713;-35.352;149.036;2024-03-08T09:48:48;25.00;79.70
40023;DHT22;25713;-35.352;149.036;2024-03-08T09:51:17;25.00;79.70
40023;DHT22;25713;-35.352;149.036;2024-03-08T09:53:48;25.00;79.90
40023;DHT22;25713;-35.352;149.036;2024-03-08T09:56:20;25.00;80.00
40023;DHT22;25713;-35.352;149.036;2024-03-08T09:58:51;25.00;79.90
40023;DHT22;25713;-35.352;149.036;2024-03-08T10:01:21;25.00;79.80
40023;DHT22;25713;-35.352;149.036;2024-03-08T10:03:53;25.00;79.80
40023;DHT22;25713;-35.352;149.036;2024-03-08T10:06:24;25.00;79.80
40023;DHT22;25713;-35.352;149.036;2024-03-08T10:08:54;25.00;79.90
40023;DHT22;25713;-35.352;149.036;2024-03-08T10:11:23;24.90;80.00
40023;DHT22;25713;-35.352;149.036;2024-03-08T10:13:55;24.90;80.30
40023;DHT22;25713;-35.352;149.036;2024-03-08T10:16:26;24.90;80.20
40023;DHT22;25713;-35.352;149.036;2024-03-08T10:18:57;24.80;80.40
40023;DHT22;25713;-35.352;149.036;2024-03-08T10:21:26;24.80;80.60
40023;DHT22;25713;-35.352;149.036;2024-03-08T10:23:57;24.80;80.80
40023;DHT22;25713;-35.352;149.036;2024-03-08T10:26:26;24.80;81.40
40023;DHT22;25713;-35.352;149.036;2024-03-08T10:28:58;24.80;83.50
40023;DHT22;25713;-35.352;149.036;2024-03-08T10:31:27;24.80;84.40
40023;DHT22;25713;-35.352;149.036;2024-03-08T10:33:56;24.70;86.00
40023;DHT22;25713;-35.352;149.036;2024-03-08T10:36:26;24.60;85.80
40023;DHT22;25713;-35.352;149.036;2024-03-08T10:38:57;24.60;85.20
40023;DHT22;25713;-35.352;149.036;2024-03-08T10:41:32;24.60;84.90
40023;DHT22;25713;-35.352;149.036;2024-03-08T10:44:14;24.60;84.70
40023;DHT22;25713;-35.352;149.036;2024-03-08T10:46:57;24.60;85.00
40023;DHT22;25713;-35.352;149.036;2024-03-08T10:49:30;24.60;85.00
40023;DHT22;25713;-35.352;149.036;2024-03-08T10:52:01;24.60;85.00
40023;DHT22;25713;-35.352;149.036;2024-03-08T10:54:32;24.60;85.60
40023;DHT22;25713;-35.352;149.036;2024-03-08T10:57:05;24.60;86.00
40023;DHT22;25713;-35.352;149.036;2024-03-08T10:59:37;24.60;84.70
40023;DHT22;25713;-35.352;149.036;2024-03-08T11:02:08;24.60;85.80
40023;DHT22;25713;-35.352;149.036;2024-03-08T11:04:38;24.60;86.10
40023;DHT22;25713;-35.352;149.036;2024-03-08T11:07:08;24.50;86.20
40023;DHT22;25713;-35.352;149.036;2024-03-08T11:09:42;24.50;85.80
40023;DHT22;25713;-35.352;149.036;2024-03-08T11:12:22;24.50;85.50
40023;DHT22;25713;-35.352;149.036;2024-03-08T11:14:54;24.50;86.50
40023;DHT22;25713;-35.352;149.036;2024-03-08T11:17:42;24.40;86.10
40023;DHT22;25713;-35.352;149.036;2024-03-08T11:20:14;24.40;86.20
40023;DHT22;25713;-35.352;149.036;2024-03-08T11:22:49;24.40;86.10
40023;DHT22;25713;-35.352;149.036;2024-03-08T11:25:35;24.40;86.50
40023;DHT22;25713;-35.352;149.036;2024-03-08T11:28:23;24.40;86.20
40023;DHT22;25713;-35.352;149.036;2024-03-08T11:31:27;24.40;86.40
40023;DHT22;25713;-35.352;149.036;2024-03-08T11:33:56;24.40;85.70
40023;DHT22;25713;-35.352;149.036;2024-03-08T11:36:26;24.40;86.40
40023;DHT22;25713;-35.352;149.036;2024-03-08T11:38:59;24.40;86.50
40023;DHT22;25713;-35.352;149.036;2024-03-08T11:41:28;24.40;86.30
40023;DHT22;25713;-35.352;149.036;2024-03-08T11:44:05;24.40;86.30
40023;DHT22;25713;-35.352;149.036;2024-03-08T11:46:36;24.30;86.00
40023;DHT22;25713;-35.352;149.036;2024-03-08T11:49:06;24.30;86.10
40023;DHT22;25713;-35.352;149.036;2024-03-08T11:51:35;24.30;85.90
40023;DHT22;25713;-35.352;149.036;2024-03-08T11:54:05;24.30;87.20
40023;DHT22;25713;-35.352;149.036;2024-03-08T11:56:35;24.30;85.90
40023;DHT22;25713;-35.352;149.036;2024-03-08T11:59:05;24.30;86.40
40023;DHT22;25713;-35.352;149.036;2024-03-08T12:01:37;24.30;86.60
40023;DHT22;25713;-35.352;149.036;2024-03-08T12:04:06;24.30;86.40
40023;DHT22;25713;-35.352;149.036;2024-03-08T12:06:39;24.30;87.00
40023;DHT22;25713;-35.352;149.036;2024-03-08T12:09:10;24.30;86.20
40023;DHT22;25713;-35.352;149.036;2024-03-08T12:11:40;24.30;86.70
40023;DHT22;25713;-35.352;149.036;2024-03-08T12:14:09;24.30;86.40
40023;DHT22;25713;-35.352;149.036;2024-03-08T12:16:41;24.20;86.40
40023;DHT22;25713;-35.352;149.036;2024-03-08T12:19:11;24.20;86.30
40023;DHT22;25713;-35.352;149.036;2024-03-08T12:21:41;24.20;86.90
40023;DHT22;25713;-35.352;149.036;2024-03-08T12:24:11;24.20;86.30
40023;DHT22;25713;-35.352;149.036;2024-03-08T12:26:42;24.20;86.70
40023;DHT22;25713;-35.352;149.036;2024-03-08T12:29:18;24.20;86.90
40023;DHT22;25713;-35.352;149.036;2024-03-08T12:31:52;24.20;86.90
40023;DHT22;25713;-35.352;149.036;2024-03-08T12:34:22;24.20;86.70
40023;DHT22;25713;-35.352;149.036;2024-03-08T12:36:53;24.20;86.50
40023;DHT22;25713;-35.352;149.036;2024-03-08T12:39:24;24.20;87.10
40023;DHT22;25713;-35.352;149.036;2024-03-08T12:41:53;24.10;86.70
40023;DHT22;25713;-35.352;149.036;2024-03-08T12:44:23;24.10;86.60
40023;DHT22;25713;-35.352;149.036;2024-03-08T12:46:55;24.10;86.50
40023;DHT22;25713;-35.352;149.036;2024-03-08T12:49:24;24.10;86.90
40023;DHT22;25713;-35.352;149.036;2024-03-08T12:51:53;24.10;86.90
40023;DHT22;25713;-35.352;149.036;2024-03-08T12:54:23;24.10;87.00
40023;DHT22;25713;-35.352;149.036;2024-03-08T12:56:53;24.00;87.00
40023;DHT22;25713;-35.352;149.036;2024-03-08T12:59:22;24.00;87.00
40023;DHT22;25713;-35.352;149.036;2024-03-08T13:01:53;24.00;87.00
40023;DHT22;25713;-35.352;149.036;2024-03-08T13:04:23;24.00;87.10
40023;DHT22;25713;-35.352;149.036;2024-03-08T13:06:52;24.00;87.00
40023;DHT22;25713;-35.352;149.036;2024-03-08T13:09:22;24.00;86.90
40023;DHT22;25713;-35.352;149.036;2024-03-08T13:11:51;24.00;87.00
40023;DHT22;25713;-35.352;149.036;2024-03-08T13:14:21;24.00;87.00
40023;DHT22;25713;-35.352;149.036;2024-03-08T13:16:50;24.00;87.00
40023;DHT22;25713;-35.352;149.036;2024-03-08T13:19:22;24.00;87.10
40023;DHT22;25713;-35.352;149.036;2024-03-08T13:21:51;24.00;87.00
40023;DHT22;25713;-35.352;149.036;2024-03-08T13:24:21;24.00;87.00
40023;DHT22;25713;-35.352;149.036;2024-03-08T13:26:50;24.00;87.00
40023;DHT22;25713;-35.352;149.036;2024-03-08T13:29:20;24.00;87.00
40023;DHT22;25713;-35.352;149.036;2024-03-08T13:31:49;24.00;87.10
40023;DHT22;25713;-35.352;149.036;2024-03-08T13:34:20;24.00;87.30
40023;DHT22;25713;-35.352;149.036;2024-03-08T13:36:50;23.90;87.20
40023;DHT22;25713;-35.352;149.036;2024-03-08T13:39:19;24.00;87.20
40023;DHT22;25713;-35.352;149.036;2024-03-08T13:41:49;24.00;87.20
40023;DHT22;25713;-35.352;149.036;2024-03-08T13:44:18;23.90;87.20
40023;DHT22;25713;-35.352;149.036;2024-03-08T13:46:48;23.90;87.20
40023;DHT22;25713;-35.352;149.036;2024-03-08T13:49:18;23.90;87.20
40023;DHT22;25713;-35.352;149.036;2024-03-08T13:51:50;23.90;87.20
40023;DHT22;25713;-35.352;149.036;2024-03-08T13:54:19;23.90;87.20
40023;DHT22;25713;-35.352;149.036;2024-03-08T13:56:49;23.90;87.20
40023;DHT22;25713;-35.352;149.036;2024-03-08T13:59:19;23.90;87.20
40023;DHT22;25713;-35.352;149.036;2024-03-08T14:01:49;23.90;87.30
40023;DHT22;25713;-35.352;149.036;2024-03-08T14:04:19;23.90;87.30
40023;DHT22;25713;-35.352;149.036;2024-03-08T14:06:50;23.90;87.30
40023;DHT22;25713;-35.352;149.036;2024-03-08T14:09:20;23.90;87.30
40023;DHT22;25713;-35.352;149.036;2024-03-08T14:11:49;23.80;87.30
40023;DHT22;25713;-35.352;149.036;2024-03-08T14:14:19;23.90;87.40
40023;DHT22;25713;-35.352;149.036;2024-03-08T14:16:48;23.90;87.50
40023;DHT22;25713;-35.352;149.036;2024-03-08T14:19:17;23.80;87.50
40023;DHT22;25713;-35.352;149.036;2024-03-08T14:21:49;23.80;87.50
40023;DHT22;25713;-35.352;149.036;2024-03-08T14:24:18;23.80;87.50
40023;DHT22;25713;-35.352;149.036;2024-03-08T14:26:48;23.80;87.50
40023;DHT22;25713;-35.352;149.036;2024-03-08T14:29:17;23.80;87.60
40023;DHT22;25713;-35.352;149.036;2024-03-08T14:31:47;23.80;87.60
40023;DHT22;25713;-35.352;149.036;2024-03-08T14:34:16;23.80;87.70
40023;DHT22;25713;-35.352;149.036;2024-03-08T14:36:46;23.80;87.70
40023;DHT22;25713;-35.352;149.036;2024-03-08T14:39:17;23.70;87.70
40023;DHT22;25713;-35.352;149.036;2024-03-08T14:41:46;23.70;87.80
40023;DHT22;25713;-35.352;149.036;2024-03-08T15:46:25;23.30;89.10
40023;DHT22;25713;-35.352;149.036;2024-03-08T15:48:54;23.30;89.60
40023;DHT22;25713;-35.352;149.036;2024-03-08T15:51:24;23.30;89.60
40023;DHT22;25713;-35.352;149.036;2024-03-08T15:53:53;23.30;89.70
40023;DHT22;25713;-35.352;149.036;2024-03-08T15:56:23;23.30;89.70
40023;DHT22;25713;-35.352;149.036;2024-03-08T15:58:53;23.30;89.60
40023;DHT22;25713;-35.352;149.036;2024-03-08T16:01:25;23.30;89.60
40023;DHT22;25713;-35.352;149.036;2024-03-08T16:03:54;23.30;89.50
40023;DHT22;25713;-35.352;149.036;2024-03-08T16:06:24;23.30;89.40
40023;DHT22;25713;-35.352;149.036;2024-03-08T16:08:53;23.30;89.40